sensor_id;sensor_type;location;lat;lon;timestamp;temperature;humidity
49729;DHT22;35617;50.714;7.114;2022-11-20T00:01:05;5.90;99.90
49729;DHT22;35617;50.714;7.114;2022-11-20T00:03:31;5.80;99.90
49729;DHT22;35617;50.714;7.114;2022-11-20T00:06:05;5.80;99.90
49729;DHT22;35617;50.714;7.114;2022-11-20T00:08:31;5.90;99.90
49729;DHT22;35617;50.714;7.114;2022-11-20T00:10:57;5.80;99.90
49729;DHT22;35617;50.714;7.114;2022-11-20T00:13:22;5.80;99.90
49729;DHT22;35617;50.714;7.114;2022-11-20T00:15:48;5.80;99.90
49729;DHT22;35617;50.714;7.114;2022-11-20T00:18:14;5.80;99.90
49729;DHT22;35617;50.714;7.114;2022-11-20T00:20:39;5.80;99.90
49729;DHT22;35617;50.714;7.114;2022-11-20T00:23:05;5.80;99.90
49729;DHT22;35617;50.714;7.114;2022-11-20T00:25:33;5.80;99.90
49729;DHT22;35617;50.714;7.114;2022-11-20T00:27:59;5.80;99.90
49729;DHT22;35617;50.714;7.114;2022-11-20T00:30:25;5.80;99.90
49729;DHT22;35617;50.714;7.114;2022-11-20T00:32:51;5.80;99.90
49729;DHT22;35617;50.714;7.114;2022-11-20T00:35:16;5.80;99.90
49729;DHT22;35617;50.714;7.114;2022-11-20T00:37:42;5.80;99.90
49729;DHT22;35617;50.714;7.114;2022-11-20T00:40:08;5.80;99.90
49729;DHT22;35617;50.714;7.114;2022-11-20T00:42:34;5.80;99.90
49729;DHT22;35617;50.714;7.114;2022-11-20T00:45:02;5.80;99.90
49729;DHT22;35617;50.714;7.114;2022-11-20T00:47:28;5.80;99.90
49729;DHT22;35617;50.714;7.114;2022-11-20T00:49:53;5.80;99.90
49729;DHT22;35617;50.714;7.114;2022-11-20T00:52:19;5.80;99.90
49729;DHT22;35617;50.714;7.114;2022-11-20T00:54:44;5.70;99.90
49729;DHT22;35617;50.714;7.114;2022-11-20T00:57:10;5.80;99.90
49729;DHT22;35617;50.714;7.114;2022-11-20T00:59:36;5.80;99.90
49729;DHT22;35617;50.714;7.114;2022-11-20T01:02:02;5.80;99.90
49729;DHT22;35617;50.714;7.114;2022-11-20T01:04:27;5.80;99.90
49729;DHT22;35617;50.714;7.114;2022-11-20T01:06:53;5.80;99.90
49729;DHT22;35617;50.714;7.114;2022-11-20T01:09:18;5.80;99.90
49729;DHT22;35617;50.714;7.114;2022-11-20T01:11:44;5.80;99.90
49729;DHT22;35617;50.714;7.114;2022-11-20T01:14:16;5.80;99.90
49729;DHT22;35617;50.714;7.114;2022-11-20T01:16:48;5.80;99.90
49729;DHT22;35617;50.714;7.114;2022-11-20T01:19:17;5.80;99.90
49729;DHT22;35617;50.714;7.114;2022-11-20T01:21:44;5.80;99.90
49729;DHT22;35617;50.714;7.114;2022-11-20T01:24:12;5.80;99.90
49729;DHT22;35617;50.714;7.114;2022-11-20T01:26:40;5.70;99.90
49729;DHT22;35617;50.714;7.114;2022-11-20T01:29:08;5.70;99.90
49729;DHT22;35617;50.714;7.114;2022-11-20T01:31:36;5.70;99.90
49729;DHT22;35617;50.714;7.114;2022-11-20T01:34:05;5.70;99.90
49729;DHT22;35617;50.714;7.114;2022-11-20T01:36:32;5.70;99.90
49729;DHT22;35617;50.714;7.114;2022-11-20T01:39:01;5.70;99.90
49729;DHT22;35617;50.714;7.114;2022-11-20T01:41:29;5.70;99.90
49729;DHT22;35617;50.714;7.114;2022-11-20T01:44:15;5.70;99.90
49729;DHT22;35617;50.714;7.114;2022-11-20T01:47:04;5.70;99.90
49729;DHT22;35617;50.714;7.114;2022-11-20T01:49:38;5.70;99.90
49729;DHT22;35617;50.714;7.114;2022-11-20T01:52:30;5.70;99.90
49729;DHT22;35617;50.714;7.114;2022-11-20T01:55:05;5.70;99.90
49729;DHT22;35617;50.714;7.114;2022-11-20T01:57:33;5.60;99.90
49729;DHT22;35617;50.714;7.114;2022-11-20T02:00:06;5.60;99.90
49729;DHT22;35617;50.714;7.114;2022-11-20T02:02:33;5.60;99.90
49729;DHT22;35617;50.714;7.114;2022-11-20T02:05:04;5.60;99.90
49729;DHT22;35617;50.714;7.114;2022-11-20T02:07:34;5.60;99.90
49729;DHT22;35617;50.714;7.114;2022-11-20T02:10:01;5.70;99.90
49729;DHT22;35617;50.714;7.114;2022-11-20T02:12:27;5.70;99.90
49729;DHT22;35617;50.714;7.114;2022-11-20T02:15:11;5.60;99.90
49729;DHT22;35617;50.714;7.114;2022-11-20T02:17:37;5.60;99.90
49729;DHT22;35617;50.714;7.114;2022-11-20T02:20:03;5.60;99.90
49729;DHT22;35617;50.714;7.114;2022-11-20T02:22:36;5.60;99.90
49729;DHT22;35617;50.714;7.114;2022-11-20T02:25:04;5.60;99.90
49729;DHT22;35617;50.714;7.114;2022-11-20T02:27:31;5.60;99.90
49729;DHT22;35617;50.714;7.114;2022-11-20T02:30:00;5.60;99.90
49729;DHT22;35617;50.714;7.114;2022-11-20T02:32:36;5.60;99.90
49729;DHT22;35617;50.714;7.114;2022-11-20T02:35:07;5.60;99.90
49729;DHT22;35617;50.714;7.114;2022-11-20T02:37:35;5.60;99.90
49729;DHT22;35617;50.714;7.114;2022-11-20T02:40:02;5.60;99.90
49729;DHT22;35617;50.714;7.114;2022-11-20T02:42:28;5.60;99.90
49729;DHT22;35617;50.714;7.114;2022-11-20T02:44:53;5.60;99.90
49729;DHT22;35617;50.714;7.114;2022-11-20T02:47:19;5.60;99.90
49729;DHT22;35617;50.714;7.114;2022-11-20T02:49:45;5.60;99.90
49729;DHT22;35617;50.714;7.114;2022-11-20T02:52:10;5.70;99.90
49729;DHT22;35617;50.714;7.114;2022-11-20T02:54:36;5.60;99.90
49729;DHT22;35617;50.714;7.114;2022-11-20T02:57:01;5.60;99.90
49729;DHT22;35617;50.714;7.114;2022-11-20T02:59:27;5.70;99.90
49729;DHT22;35617;50.714;7.114;2022-11-20T03:01:53;5.70;99.90
49729;DHT22;35617;50.714;7.114;2022-11-20T03:04:18;5.70;99.90
49729;DHT22;35617;50.714;7.114;2022-11-20T03:06:44;5.70;99.90
49729;DHT22;35617;50.714;7.114;2022-11-20T03:09:09;5.70;99.90
49729;DHT22;35617;50.714;7.114;2022-11-20T03:11:35;5.70;99.90
49729;DHT22;35617;50.714;7.114;2022-11-20T03:14:04;5.70;99.90
49729;DHT22;35617;50.714;7.114;2022-11-20T03:16:31;5.70;99.90
49729;DHT22;35617;50.714;7.114;2022-11-20T03:18:56;5.70;99.90
49729;DHT22;35617;50.714;7.114;2022-11-20T03:21:22;5.70;99.90
49729;DHT22;35617;50.714;7.114;2022-11-20T03:23:48;5.60;99.90
49729;DHT22;35617;50.714;7.114;2022-11-20T03:26:16;5.60;99.90
49729;DHT22;35617;50.714;7.114;2022-11-20T03:28:47;5.60;99.90
49729;DHT22;35617;50.714;7.114;2022-11-20T03:31:15;5.60;99.90
49729;DHT22;35617;50.714;7.114;2022-11-20T03:33:42;5.60;99.90
49729;DHT22;35617;50.714;7.114;2022-11-20T03:36:10;5.60;99.90
49729;DHT22;35617;50.714;7.114;2022-11-20T03:38:36;5.60;99.90
49729;DHT22;35617;50.714;7.114;2022-11-20T03:41:07;5.60;99.90
49729;DHT22;35617;50.714;7.114;2022-11-20T03:43:33;5.60;99.90
49729;DHT22;35617;50.714;7.114;2022-11-20T03:45:59;5.50;99.90
49729;DHT22;35617;50.714;7.114;2022-11-20T03:48:25;5.50;99.90
49729;DHT22;35617;50.714;7.114;2022-11-20T03:50:52;5.60;99.90
49729;DHT22;35617;50.714;7.114;2022-11-20T03:53:19;5.60;99.90
49729;DHT22;35617;50.714;7.114;2022-11-20T03:55:49;5.60;99.90
49729;DHT22;35617;50.714;7.114;2022-11-20T03:58:15;5.60;99.90
49729;DHT22;35617;50.714;7.114;2022-11-20T04:00:41;5.60;99.90
49729;DHT22;35617;50.714;7.114;2022-11-20T04:03:06;5.60;99.90
49729;DHT22;35617;50.714;7.114;2022-11-20T04:05:33;5.60;99.90
49729;DHT22;35617;50.714;7.114;2022-11-20T04:07:59;5.60;99.90
49729;DHT22;35617;50.714;7.114;2022-11-20T04:10:25;5.60;99.90
49729;DHT22;35617;50.714;7.114;2022-11-20T04:12:51;5.70;99.90
49729;DHT22;35617;50.714;7.114;2022-11-20T04:15:16;5.60;99.90
49729;DHT22;35617;50.714;7.114;2022-11-20T04:17:43;5.60;99.90
49729;DHT22;35617;50.714;7.114;2022-11-20T04:20:09;5.60;99.90
49729;DHT22;35617;50.714;7.114;2022-11-20T04:22:34;5.60;99.90
49729;DHT22;35617;50.714;7.114;2022-11-20T04:25:00;5.60;99.90
49729;DHT22;35617;50.714;7.114;2022-11-20T04:27:25;5.60;99.90
49729;DHT22;35617;50.714;7.114;2022-11-20T04:29:51;5.70;99.90
49729;DHT22;35617;50.714;7.114;2022-11-20T04:32:17;5.70;99.90
49729;DHT22;35617;50.714;7.114;2022-11-20T04:34:42;5.70;99.90
49729;DHT22;35617;50.714;7.114;2022-11-20T04:37:08;5.60;99.90
49729;DHT22;35617;50.714;7.114;2022-11-20T04:39:33;5.60;99.90
49729;DHT22;35617;50.714;7.114;2022-11-20T04:41:59;5.70;99.90
49729;DHT22;35617;50.714;7.114;2022-11-20T04:44:43;5.70;99.90
49729;DHT22;35617;50.714;7.114;2022-11-20T04:47:08;5.70;99.90
49729;DHT22;35617;50.714;7.114;2022-11-20T04:49:34;5.70;99.90
49729;DHT22;35617;50.714;7.114;2022-11-20T04:52:00;5.70;99.90
49729;DHT22;35617;50.714;7.114;2022-11-20T04:54:25;5.60;99.90
49729;DHT22;35617;50.714;7.114;2022-11-20T04:56:51;5.60;99.90
49729;DHT22;35617;50.714;7.114;2022-11-20T04:59:16;5.60;99.90
49729;DHT22;35617;50.714;7.114;2022-11-20T05:01:42;5.60;99.90
49729;DHT22;35617;50.714;7.114;2022-11-20T05:04:08;5.60;99.90
49729;DHT22;35617;50.714;7.114;2022-11-20T05:06:33;5.60;99.90
49729;DHT22;35617;50.714;7.114;2022-11-20T05:08:59;5.60;99.90
49729;DHT22;35617;50.714;7.114;2022-11-20T05:11:26;5.60;99.90
49729;DHT22;35617;50.714;7.114;2022-11-20T05:13:54;5.60;99.90
49729;DHT22;35617;50.714;7.114;2022-11-20T05:16:22;5.70;99.90
49729;DHT22;35617;50.714;7.114;2022-11-20T05:18:49;5.70;99.90
49729;DHT22;35617;50.714;7.114;2022-11-20T05:21:15;5.70;99.90
49729;DHT22;35617;50.714;7.114;2022-11-20T05:23:42;5.70;99.90
49729;DHT22;35617;50.714;7.114;2022-11-20T05:26:19;5.70;99.90
49729;DHT22;35617;50.714;7.114;2022-11-20T05:28:45;5.70;99.90
49729;DHT22;35617;50.714;7.114;2022-11-20T05:31:13;5.70;99.90
49729;DHT22;35617;50.714;7.114;2022-11-20T05:33:59;5.70;99.90
49729;DHT22;35617;50.714;7.114;2022-11-20T05:36:28;5.60;99.90
49729;DHT22;35617;50.714;7.114;2022-11-20T05:38:53;5.60;99.90
49729;DHT22;35617;50.714;7.114;2022-11-20T05:41:20;5.60;99.90
49729;DHT22;35617;50.714;7.114;2022-11-20T05:43:47;5.60;99.90
49729;DHT22;35617;50.714;7.114;2022-11-20T05:46:15;5.60;99.90
49729;DHT22;35617;50.714;7.114;2022-11-20T05:48:41;5.60;99.90
49729;DHT22;35617;50.714;7.114;2022-11-20T05:51:09;5.60;99.90
49729;DHT22;35617;50.714;7.114;2022-11-20T05:53:35;5.60;99.90
49729;DHT22;35617;50.714;7.114;2022-11-20T05:56:06;5.70;99.90
49729;DHT22;35617;50.714;7.114;2022-11-20T05:58:32;5.70;99.90
49729;DHT22;35617;50.714;7.114;2022-11-20T06:01:09;5.70;99.90
49729;DHT22;35617;50.714;7.114;2022-11-20T06:03:35;5.70;99.90
49729;DHT22;35617;50.714;7.114;2022-11-20T06:06:02;5.70;99.90
49729;DHT22;35617;50.714;7.114;2022-11-20T06:08:28;5.60;99.90
49729;DHT22;35617;50.714;7.114;2022-11-20T06:10:54;5.60;99.90
49729;DHT22;35617;50.714;7.114;2022-11-20T06:13:19;5.60;99.90
49729;DHT22;35617;50.714;7.114;2022-11-20T06:15:50;5.60;99.90
49729;DHT22;35617;50.714;7.114;2022-11-20T06:18:15;5.60;99.90
49729;DHT22;35617;50.714;7.114;2022-11-20T06:20:41;5.60;99.90
49729;DHT22;35617;50.714;7.114;2022-11-20T06:23:07;5.50;99.90
49729;DHT22;35617;50.714;7.114;2022-11-20T06:25:32;5.50;99.90
49729;DHT22;35617;50.714;7.114;2022-11-20T06:27:58;5.60;99.90
49729;DHT22;35617;50.714;7.114;2022-11-20T06:30:23;5.60;99.90
49729;DHT22;35617;50.714;7.114;2022-11-20T06:32:49;5.60;99.90
49729;DHT22;35617;50.714;7.114;2022-11-20T06:35:14;5.50;99.90
49729;DHT22;35617;50.714;7.114;2022-11-20T06:37:40;5.50;99.90
49729;DHT22;35617;50.714;7.114;2022-11-20T06:40:06;5.50;99.90
49729;DHT22;35617;50.714;7.114;2022-11-20T06:42:32;5.50;99.90
49729;DHT22;35617;50.714;7.114;2022-11-20T06:44:58;5.50;99.90
49729;DHT22;35617;50.714;7.114;2022-11-20T06:47:23;5.50;99.90
49729;DHT22;35617;50.714;7.114;2022-11-20T06:49:49;5.60;99.90
49729;DHT22;35617;50.714;7.114;2022-11-20T06:52:14;5.50;99.90
49729;DHT22;35617;50.714;7.114;2022-11-20T06:54:40;5.50;99.90
49729;DHT22;35617;50.714;7.114;2022-11-20T06:57:06;5.60;99.90
49729;DHT22;35617;50.714;7.114;2022-11-20T06:59:31;5.60;99.90
49729;DHT22;35617;50.714;7.114;2022-11-20T07:01:57;5.60;99.90
49729;DHT22;35617;50.714;7.114;2022-11-20T07:04:22;5.60;99.90
49729;DHT22;35617;50.714;7.114;2022-11-20T07:06:48;5.60;99.90
49729;DHT22;35617;50.714;7.114;2022-11-20T07:09:14;5.60;99.90
49729;DHT22;35617;50.714;7.114;2022-11-20T07:11:39;5.60;99.90
49729;DHT22;35617;50.714;7.114;2022-11-20T07:14:05;5.60;99.90
49729;DHT22;35617;50.714;7.114;2022-11-20T07:16:30;5.60;99.90
49729;DHT22;35617;50.714;7.114;2022-11-20T07:18:56;5.60;99.90
49729;DHT22;35617;50.714;7.114;2022-11-20T07:21:22;5.60;99.90
49729;DHT22;35617;50.714;7.114;2022-11-20T07:23:47;5.60;99.90
49729;DHT22;35617;50.714;7.114;2022-11-20T07:26:13;5.60;99.90
49729;DHT22;35617;50.714;7.114;2022-11-20T07:28:39;5.60;99.90
49729;DHT22;35617;50.714;7.114;2022-11-20T07:31:05;5.60;99.90
49729;DHT22;35617;50.714;7.114;2022-11-20T07:33:32;5.60;99.90
49729;DHT22;35617;50.714;7.114;2022-11-20T07:36:01;5.60;99.90
49729;DHT22;35617;50.714;7.114;2022-11-20T07:38:27;5.60;99.90
49729;DHT22;35617;50.714;7.114;2022-11-20T07:40:59;5.60;99.90
49729;DHT22;35617;50.714;7.114;2022-11-20T07:43:27;5.70;99.90
49729;DHT22;35617;50.714;7.114;2022-11-20T07:45:55;5.70;99.90
49729;DHT22;35617;50.714;7.114;2022-11-20T07:48:21;5.70;99.90
49729;DHT22;35617;50.714;7.114;2022-11-20T07:50:46;5.70;99.90
49729;DHT22;35617;50.714;7.114;2022-11-20T07:53:12;5.70;99.90
49729;DHT22;35617;50.714;7.114;2022-11-20T07:55:39;5.80;99.90
49729;DHT22;35617;50.714;7.114;2022-11-20T07:58:05;5.80;99.90
49729;DHT22;35617;50.714;7.114;2022-11-20T08:00:30;5.80;99.90
49729;DHT22;35617;50.714;7.114;2022-11-20T08:02:56;5.80;99.90
49729;DHT22;35617;50.714;7.114;2022-11-20T08:05:22;5.80;99.90
49729;DHT22;35617;50.714;7.114;2022-11-20T08:07:47;5.80;99.90
49729;DHT22;35617;50.714;7.114;2022-11-20T08:10:14;5.80;99.90
49729;DHT22;35617;50.714;7.114;2022-11-20T08:12:51;5.90;99.90
49729;DHT22;35617;50.714;7.114;2022-11-20T08:15:38;5.90;99.90
49729;DHT22;35617;50.714;7.114;2022-11-20T08:18:06;5.90;99.90
49729;DHT22;35617;50.714;7.114;2022-11-20T08:20:32;6.00;99.90
49729;DHT22;35617;50.714;7.114;2022-11-20T08:23:03;6.00;99.90
49729;DHT22;35617;50.714;7.114;2022-11-20T08:25:31;6.00;99.90
49729;DHT22;35617;50.714;7.114;2022-11-20T08:28:01;6.00;99.90
49729;DHT22;35617;50.714;7.114;2022-11-20T08:30:28;6.10;99.90
49729;DHT22;35617;50.714;7.114;2022-11-20T08:32:54;6.10;99.90
49729;DHT22;35617;50.714;7.114;2022-11-20T08:35:26;6.10;99.90
49729;DHT22;35617;50.714;7.114;2022-11-20T08:37:51;6.10;99.90
49729;DHT22;35617;50.714;7.114;2022-11-20T08:40:17;6.30;99.90
49729;DHT22;35617;50.714;7.114;2022-11-20T08:42:49;6.40;99.90
49729;DHT22;35617;50.714;7.114;2022-11-20T08:45:18;6.40;99.90
49729;DHT22;35617;50.714;7.114;2022-11-20T08:47:44;6.40;99.90
49729;DHT22;35617;50.714;7.114;2022-11-20T08:50:12;6.40;99.90
49729;DHT22;35617;50.714;7.114;2022-11-20T08:52:38;6.40;99.90
49729;DHT22;35617;50.714;7.114;2022-11-20T08:55:06;6.50;99.90
49729;DHT22;35617;50.714;7.114;2022-11-20T08:57:35;6.50;99.90
49729;DHT22;35617;50.714;7.114;2022-11-20T09:00:03;6.60;99.90
49729;DHT22;35617;50.714;7.114;2022-11-20T09:02:30;6.60;99.90
49729;DHT22;35617;50.714;7.114;2022-11-20T09:04:56;6.80;99.90
49729;DHT22;35617;50.714;7.114;2022-11-20T09:07:21;6.90;99.90
49729;DHT22;35617;50.714;7.114;2022-11-20T09:09:47;6.80;99.90
49729;DHT22;35617;50.714;7.114;2022-11-20T09:12:13;6.80;99.90
49729;DHT22;35617;50.714;7.114;2022-11-20T09:14:39;6.80;99.90
49729;DHT22;35617;50.714;7.114;2022-11-20T09:17:04;6.80;99.90
49729;DHT22;35617;50.714;7.114;2022-11-20T09:19:30;6.90;99.90
49729;DHT22;35617;50.714;7.114;2022-11-20T09:21:55;6.90;99.90
49729;DHT22;35617;50.714;7.114;2022-11-20T09:24:21;7.00;99.90
49729;DHT22;35617;50.714;7.114;2022-11-20T09:26:46;7.00;99.90
49729;DHT22;35617;50.714;7.114;2022-11-20T09:29:12;7.10;99.90
49729;DHT22;35617;50.714;7.114;2022-11-20T09:31:38;7.20;99.90
49729;DHT22;35617;50.714;7.114;2022-11-20T09:34:04;7.30;99.90
49729;DHT22;35617;50.714;7.114;2022-11-20T09:36:29;7.40;99.90
49729;DHT22;35617;50.714;7.114;2022-11-20T09:38:55;7.40;99.90
49729;DHT22;35617;50.714;7.114;2022-11-20T09:50:39;7.60;99.90
49729;DHT22;35617;50.714;7.114;2022-11-20T09:53:30;7.50;99.90
49729;DHT22;35617;50.714;7.114;2022-11-20T09:56:01;7.50;99.90
49729;DHT22;35617;50.714;7.114;2022-11-20T09:58:50;7.60;99.90
49729;DHT22;35617;50.714;7.114;2022-11-20T10:01:22;7.70;99.90
49729;DHT22;35617;50.714;7.114;2022-11-20T10:04:10;7.80;99.90
49729;DHT22;35617;50.714;7.114;2022-11-20T10:09:38;8.00;99.90
49729;DHT22;35617;50.714;7.114;2022-11-20T10:13:02;8.00;99.90
49729;DHT22;35617;50.714;7.114;2022-11-20T10:15:29;8.00;99.90
49729;DHT22;35617;50.714;7.114;2022-11-20T10:18:29;8.00;99.90
49729;DHT22;35617;50.714;7.114;2022-11-20T10:21:09;8.10;99.90
49729;DHT22;35617;50.714;7.114;2022-11-20T10:24:02;8.20;99.90
49729;DHT22;35617;50.714;7.114;2022-11-20T10:29:19;8.20;99.90
49729;DHT22;35617;50.714;7.114;2022-11-20T10:31:56;8.20;99.90
49729;DHT22;35617;50.714;7.114;2022-11-20T10:37:45;8.30;99.90
49729;DHT22;35617;50.714;7.114;2022-11-20T10:42:59;8.30;99.90
49729;DHT22;35617;50.714;7.114;2022-11-20T10:47:56;8.40;99.90
49729;DHT22;35617;50.714;7.114;2022-11-20T10:50:23;8.40;99.90
49729;DHT22;35617;50.714;7.114;2022-11-20T10:55:44;8.40;99.90
49729;DHT22;35617;50.714;7.114;2022-11-20T11:01:20;8.40;99.90
49729;DHT22;35617;50.714;7.114;2022-11-20T11:03:50;8.40;99.90
49729;DHT22;35617;50.714;7.114;2022-11-20T11:08:53;8.40;99.90
49729;DHT22;35617;50.714;7.114;2022-11-20T11:11:33;8.40;99.90
49729;DHT22;35617;50.714;7.114;2022-11-20T11:14:13;8.40;99.90
49729;DHT22;35617;50.714;7.114;2022-11-20T11:16:55;8.40;99.90
49729;DHT22;35617;50.714;7.114;2022-11-20T11:19:22;8.40;99.90
49729;DHT22;35617;50.714;7.114;2022-11-20T11:21:50;8.50;99.90
49729;DHT22;35617;50.714;7.114;2022-11-20T11:24:28;8.50;99.90
49729;DHT22;35617;50.714;7.114;2022-11-20T11:27:10;8.50;99.90
49729;DHT22;35617;50.714;7.114;2022-11-20T11:29:36;8.50;99.90
49729;DHT22;35617;50.714;7.114;2022-11-20T11:32:12;8.60;99.90
49729;DHT22;35617;50.714;7.114;2022-11-20T11:34:38;8.60;99.90
49729;DHT22;35617;50.714;7.114;2022-11-20T11:37:04;8.60;99.90
49729;DHT22;35617;50.714;7.114;2022-11-20T11:39:33;8.70;99.90
49729;DHT22;35617;50.714;7.114;2022-11-20T11:42:00;8.70;99.90
49729;DHT22;35617;50.714;7.114;2022-11-20T11:44:33;8.80;99.90
49729;DHT22;35617;50.714;7.114;2022-11-20T11:47:26;8.80;99.90
49729;DHT22;35617;50.714;7.114;2022-11-20T11:53:09;8.70;99.90
49729;DHT22;35617;50.714;7.114;2022-11-20T11:55:44;8.70;99.90
49729;DHT22;35617;50.714;7.114;2022-11-20T11:58:46;8.70;99.90
49729;DHT22;35617;50.714;7.114;2022-11-20T12:01:38;8.80;99.90
49729;DHT22;35617;50.714;7.114;2022-11-20T12:04:44;8.80;99.90
49729;DHT22;35617;50.714;7.114;2022-11-20T12:07:25;8.80;99.90
49729;DHT22;35617;50.714;7.114;2022-11-20T12:09:54;8.80;99.90
49729;DHT22;35617;50.714;7.114;2022-11-20T12:12:32;8.80;99.90
49729;DHT22;35617;50.714;7.114;2022-11-20T12:15:01;8.90;99.90
49729;DHT22;35617;50.714;7.114;2022-11-20T12:17:27;8.90;99.90
49729;DHT22;35617;50.714;7.114;2022-11-20T12:19:53;8.90;99.90
49729;DHT22;35617;50.714;7.114;2022-11-20T12:22:45;9.00;99.90
49729;DHT22;35617;50.714;7.114;2022-11-20T12:30:15;9.10;99.90
49729;DHT22;35617;50.714;7.114;2022-11-20T12:35:37;9.20;99.90
49729;DHT22;35617;50.714;7.114;2022-11-20T12:47:34;9.30;99.90
49729;DHT22;35617;50.714;7.114;2022-11-20T12:52:45;9.40;99.90
49729;DHT22;35617;50.714;7.114;2022-11-20T12:55:25;9.40;99.90
49729;DHT22;35617;50.714;7.114;2022-11-20T12:58:10;9.40;99.90
49729;DHT22;35617;50.714;7.114;2022-11-20T13:00:40;9.40;99.90
49729;DHT22;35617;50.714;7.114;2022-11-20T13:03:38;9.40;99.90
49729;DHT22;35617;50.714;7.114;2022-11-20T13:06:17;9.40;99.90
49729;DHT22;35617;50.714;7.114;2022-11-20T13:09:02;9.40;99.90
49729;DHT22;35617;50.714;7.114;2022-11-20T13:11:32;9.40;99.90
49729;DHT22;35617;50.714;7.114;2022-11-20T13:14:26;9.40;99.90
49729;DHT22;35617;50.714;7.114;2022-11-20T13:19:30;9.40;99.90
49729;DHT22;35617;50.714;7.114;2022-11-20T13:21:56;9.40;99.90
49729;DHT22;35617;50.714;7.114;2022-11-20T13:24:28;9.40;99.90
49729;DHT22;35617;50.714;7.114;2022-11-20T13:29:35;9.50;99.90
49729;DHT22;35617;50.714;7.114;2022-11-20T13:32:20;9.50;99.90
49729;DHT22;35617;50.714;7.114;2022-11-20T13:34:59;9.50;99.90
49729;DHT22;35617;50.714;7.114;2022-11-20T13:37:45;9.50;99.90
49729;DHT22;35617;50.714;7.114;2022-11-20T13:40:13;9.50;99.90
49729;DHT22;35617;50.714;7.114;2022-11-20T13:45:26;9.40;99.90
49729;DHT22;35617;50.714;7.114;2022-11-20T13:47:53;9.40;99.90
49729;DHT22;35617;50.714;7.114;2022-11-20T13:50:21;9.40;99.90
49729;DHT22;35617;50.714;7.114;2022-11-20T13:55:40;9.40;99.90
49729;DHT22;35617;50.714;7.114;2022-11-20T14:00:51;9.40;99.90
49729;DHT22;35617;50.714;7.114;2022-11-20T14:03:25;9.40;99.90
49729;DHT22;35617;50.714;7.114;2022-11-20T14:06:04;9.50;99.90
49729;DHT22;35617;50.714;7.114;2022-11-20T14:11:12;9.50;99.90
49729;DHT22;35617;50.714;7.114;2022-11-20T14:13:39;9.40;99.90
49729;DHT22;35617;50.714;7.114;2022-11-20T14:16:04;9.40;99.90
49729;DHT22;35617;50.714;7.114;2022-11-20T14:18:30;9.40;99.90
49729;DHT22;35617;50.714;7.114;2022-11-20T14:20:55;9.40;99.90
49729;DHT22;35617;50.714;7.114;2022-11-20T14:23:28;9.40;99.90
49729;DHT22;35617;50.714;7.114;2022-11-20T14:25:55;9.40;99.90
49729;DHT22;35617;50.714;7.114;2022-11-20T14:28:27;9.40;99.90
49729;DHT22;35617;50.714;7.114;2022-11-20T14:30:53;9.40;99.90
49729;DHT22;35617;50.714;7.114;2022-11-20T14:33:19;9.40;99.90
49729;DHT22;35617;50.714;7.114;2022-11-20T14:35:47;9.40;99.90
49729;DHT22;35617;50.714;7.114;2022-11-20T14:38:19;9.40;99.90
49729;DHT22;35617;50.714;7.114;2022-11-20T14:40:46;9.40;99.90
49729;DHT22;35617;50.714;7.114;2022-11-20T14:43:24;9.40;99.90
49729;DHT22;35617;50.714;7.114;2022-11-20T14:46:07;9.40;99.90
49729;DHT22;35617;50.714;7.114;2022-11-20T14:48:49;9.40;99.90
49729;DHT22;35617;50.714;7.114;2022-11-20T14:51:36;9.30;99.90
49729;DHT22;35617;50.714;7.114;2022-11-20T14:54:18;9.30;99.90
49729;DHT22;35617;50.714;7.114;2022-11-20T14:56:58;9.30;99.90
49729;DHT22;35617;50.714;7.114;2022-11-20T14:59:25;9.30;99.90
49729;DHT22;35617;50.714;7.114;2022-11-20T15:01:57;9.30;99.90
49729;DHT22;35617;50.714;7.114;2022-11-20T15:04:23;9.30;99.90
49729;DHT22;35617;50.714;7.114;2022-11-20T15:06:54;9.20;99.90
49729;DHT22;35617;50.714;7.114;2022-11-20T15:09:20;9.20;99.90
49729;DHT22;35617;50.714;7.114;2022-11-20T15:11:59;9.20;99.90
49729;DHT22;35617;50.714;7.114;2022-11-20T15:14:27;9.20;99.90
49729;DHT22;35617;50.714;7.114;2022-11-20T15:16:54;9.20;99.90
49729;DHT22;35617;50.714;7.114;2022-11-20T15:19:24;9.10;99.90
49729;DHT22;35617;50.714;7.114;2022-11-20T15:21:51;9.10;99.90
49729;DHT22;35617;50.714;7.114;2022-11-20T15:24:17;9.10;99.90
49729;DHT22;35617;50.714;7.114;2022-11-20T15:26:43;9.10;99.90
49729;DHT22;35617;50.714;7.114;2022-11-20T15:29:11;9.10;99.90
49729;DHT22;35617;50.714;7.114;2022-11-20T15:31:37;9.20;99.90
49729;DHT22;35617;50.714;7.114;2022-11-20T15:34:13;9.20;99.90
49729;DHT22;35617;50.714;7.114;2022-11-20T15:36:39;9.10;99.90
49729;DHT22;35617;50.714;7.114;2022-11-20T15:39:06;9.10;99.90
49729;DHT22;35617;50.714;7.114;2022-11-20T15:41:33;9.10;99.90
49729;DHT22;35617;50.714;7.114;2022-11-20T15:43:59;9.00;99.90
49729;DHT22;35617;50.714;7.114;2022-11-20T15:46:30;9.10;99.90
49729;DHT22;35617;50.714;7.114;2022-11-20T15:49:03;9.00;99.90
49729;DHT22;35617;50.714;7.114;2022-11-20T15:53:57;9.00;99.90
49729;DHT22;35617;50.714;7.114;2022-11-20T15:56:23;9.00;99.90
49729;DHT22;35617;50.714;7.114;2022-11-20T15:58:49;9.00;99.90
49729;DHT22;35617;50.714;7.114;2022-11-20T16:01:20;9.00;99.90
49729;DHT22;35617;50.714;7.114;2022-11-20T16:03:46;9.00;99.90
49729;DHT22;35617;50.714;7.114;2022-11-20T16:06:12;9.00;99.90
49729;DHT22;35617;50.714;7.114;2022-11-20T16:08:38;9.00;99.90
49729;DHT22;35617;50.714;7.114;2022-11-20T16:11:04;8.90;99.90
49729;DHT22;35617;50.714;7.114;2022-11-20T16:13:31;8.90;99.90
49729;DHT22;35617;50.714;7.114;2022-11-20T16:16:25;8.90;99.90
49729;DHT22;35617;50.714;7.114;2022-11-20T16:18:54;8.90;99.90
49729;DHT22;35617;50.714;7.114;2022-11-20T16:21:20;8.90;99.90
49729;DHT22;35617;50.714;7.114;2022-11-20T16:23:45;8.90;99.90
49729;DHT22;35617;50.714;7.114;2022-11-20T16:26:13;8.80;99.90
49729;DHT22;35617;50.714;7.114;2022-11-20T16:28:39;8.80;99.90
49729;DHT22;35617;50.714;7.114;2022-11-20T16:31:14;8.80;99.90
49729;DHT22;35617;50.714;7.114;2022-11-20T16:33:39;8.80;99.90
49729;DHT22;35617;50.714;7.114;2022-11-20T16:36:09;8.70;99.90
49729;DHT22;35617;50.714;7.114;2022-11-20T16:38:35;8.60;99.90
49729;DHT22;35617;50.714;7.114;2022-11-20T16:41:01;8.60;99.90
49729;DHT22;35617;50.714;7.114;2022-11-20T16:43:27;8.60;99.90
49729;DHT22;35617;50.714;7.114;2022-11-20T16:45:52;8.60;99.90
49729;DHT22;35617;50.714;7.114;2022-11-20T16:48:18;8.60;99.90
49729;DHT22;35617;50.714;7.114;2022-11-20T16:50:48;8.60;99.90
49729;DHT22;35617;50.714;7.114;2022-11-20T16:53:14;8.60;99.90
49729;DHT22;35617;50.714;7.114;2022-11-20T16:55:40;8.60;99.90
49729;DHT22;35617;50.714;7.114;2022-11-20T16:58:05;8.60;99.90
49729;DHT22;35617;50.714;7.114;2022-11-20T17:00:31;8.60;99.90
49729;DHT22;35617;50.714;7.114;2022-11-20T17:02:57;8.60;99.90
49729;DHT22;35617;50.714;7.114;2022-11-20T17:05:22;8.60;99.90
49729;DHT22;35617;50.714;7.114;2022-11-20T17:07:48;8.60;99.90
49729;DHT22;35617;50.714;7.114;2022-11-20T17:10:13;8.60;99.90
49729;DHT22;35617;50.714;7.114;2022-11-20T17:12:39;8.60;99.90